DHK052 EGNX-EBBR
Flight info
| Callsign | DHK052 |
|---|---|
| Flight time | 0h 53m |
| Altitude | 29000 |
| Route | SAPCO UY53 DTY UM605 BENSU Q70 VABIK/N0445F230 Q70 KOK |
| Aircraft | B77L/H-SDE1E2E3FGHIJ2J3J4J5M1RWXY/LB1D1 |
Departure
| Time | 2026-05-04 21:49 |
|---|---|
| Airport | East Midlands Airport (EGNX) |
Arrival
| Time | 2026-05-04 22:43 |
|---|---|
| Airport | Brussels Airport (EBBR) |
| Time | Latitude | Longitude | Altitude | Speed | Heading |
|---|---|---|---|---|---|
| 2026-05-04 20:57 | 52.82750 | -1.34867 | 305 ft | 0 kts | 178° |
| 2026-05-04 21:41 | 52.82761 | -1.34868 | 305 ft | 4 kts | 181° |
| 2026-05-04 21:41 | 52.82788 | -1.34864 | 306 ft | 4 kts | 193° |
| 2026-05-04 21:41 | 52.82813 | -1.34849 | 304 ft | 4 kts | 217° |
| 2026-05-04 21:41 | 52.82827 | -1.34819 | 303 ft | 3 kts | 265° |
| 2026-05-04 21:42 | 52.82827 | -1.34815 | 303 ft | 1 kts | 268° |
| 2026-05-04 21:44 | 52.82827 | -1.34816 | 303 ft | 1 kts | 268° |
| 2026-05-04 21:44 | 52.82825 | -1.34925 | 305 ft | 12 kts | 268° |
| 2026-05-04 21:44 | 52.82823 | -1.35065 | 307 ft | 13 kts | 268° |
| 2026-05-04 21:44 | 52.82822 | -1.35203 | 308 ft | 10 kts | 280° |
| 2026-05-04 21:45 | 52.82874 | -1.35234 | 308 ft | 10 kts | 38° |
| 2026-05-04 21:45 | 52.82893 | -1.35124 | 308 ft | 11 kts | 88° |
| 2026-05-04 21:45 | 52.82897 | -1.35005 | 308 ft | 9 kts | 86° |
| 2026-05-04 21:45 | 52.82933 | -1.34939 | 311 ft | 7 kts | 19° |
| 2026-05-04 21:46 | 52.82988 | -1.34936 | 310 ft | 9 kts | 359° |
| 2026-05-04 21:46 | 52.83049 | -1.34934 | 310 ft | 5 kts | 15° |
| 2026-05-04 21:46 | 52.83063 | -1.34865 | 310 ft | 8 kts | 79° |
| 2026-05-04 21:46 | 52.83064 | -1.34823 | 307 ft | 0 kts | 89° |
| 2026-05-04 21:48 | 52.83065 | -1.34793 | 307 ft | 24 kts | 89° |
| 2026-05-04 21:49 | 52.83079 | -1.33968 | 308 ft | 115 kts | 88° |
| 2026-05-04 21:49 | 52.83110 | -1.32232 | 352 ft | 179 kts | 88° |
| 2026-05-04 21:49 | 52.83128 | -1.30868 | 827 ft | 180 kts | 91° |
| 2026-05-04 21:49 | 52.83040 | -1.28755 | 1714 ft | 187 kts | 94° |
| 2026-05-04 21:50 | 52.82910 | -1.26563 | 2509 ft | 200 kts | 94° |
| 2026-05-04 21:50 | 52.82684 | -1.24115 | 2860 ft | 234 kts | 105° |
| 2026-05-04 21:50 | 52.81834 | -1.21608 | 3333 ft | 262 kts | 129° |
| 2026-05-04 21:50 | 52.80158 | -1.18672 | 4755 ft | 267 kts | 133° |
| 2026-05-04 21:51 | 52.79267 | -1.17191 | 5533 ft | 268 kts | 133° |
| 2026-05-04 21:51 | 52.77898 | -1.15138 | 6520 ft | 272 kts | 148° |
| 2026-05-04 21:51 | 52.76062 | -1.14321 | 7401 ft | 279 kts | 184° |
| 2026-05-04 21:51 | 52.74263 | -1.15341 | 8353 ft | 277 kts | 218° |
| 2026-05-04 21:52 | 52.72890 | -1.17586 | 8970 ft | 280 kts | 229° |
| 2026-05-04 21:52 | 52.71034 | -1.20573 | 9050 ft | 283 kts | 222° |
| 2026-05-04 21:52 | 52.70018 | -1.21995 | 9104 ft | 284 kts | 220° |
| 2026-05-04 21:52 | 52.68483 | -1.24047 | 9844 ft | 285 kts | 220° |
| 2026-05-04 21:53 | 52.66914 | -1.26115 | 10769 ft | 294 kts | 219° |
| 2026-05-04 21:53 | 52.65233 | -1.28314 | 11155 ft | 325 kts | 219° |
| 2026-05-04 21:53 | 52.63397 | -1.30700 | 11420 ft | 357 kts | 219° |
| 2026-05-04 21:53 | 52.61397 | -1.33292 | 12189 ft | 372 kts | 219° |
| 2026-05-04 21:54 | 52.59311 | -1.35826 | 13215 ft | 375 kts | 211° |
| 2026-05-04 21:54 | 52.56793 | -1.37122 | 14110 ft | 388 kts | 185° |
| 2026-05-04 21:54 | 52.54111 | -1.36499 | 15206 ft | 394 kts | 161° |
| 2026-05-04 21:54 | 52.51586 | -1.34704 | 16130 ft | 399 kts | 156° |
| 2026-05-04 21:55 | 52.49052 | -1.32758 | 17123 ft | 405 kts | 156° |
| 2026-05-04 21:55 | 52.46475 | -1.30812 | 18209 ft | 409 kts | 157° |
| 2026-05-04 21:55 | 52.43857 | -1.28907 | 19155 ft | 413 kts | 158° |
| 2026-05-04 21:55 | 52.41201 | -1.27040 | 20031 ft | 418 kts | 159° |
| 2026-05-04 21:56 | 52.38505 | -1.25190 | 20921 ft | 422 kts | 159° |
| 2026-05-04 21:56 | 52.35773 | -1.23340 | 21789 ft | 427 kts | 160° |
| 2026-05-04 21:56 | 52.33010 | -1.21479 | 22657 ft | 432 kts | 160° |
| 2026-05-04 21:56 | 52.30211 | -1.19598 | 23517 ft | 437 kts | 160° |
| 2026-05-04 21:57 | 52.27391 | -1.17703 | 24219 ft | 441 kts | 160° |
| 2026-05-04 21:57 | 52.24574 | -1.15811 | 24955 ft | 444 kts | 159° |
| 2026-05-04 21:57 | 52.21702 | -1.13883 | 25704 ft | 447 kts | 159° |
| 2026-05-04 21:57 | 52.18793 | -1.12010 | 26395 ft | 451 kts | 162° |
| 2026-05-04 21:58 | 52.15778 | -1.10548 | 27048 ft | 454 kts | 168° |
| 2026-05-04 21:58 | 52.12656 | -1.09557 | 27711 ft | 458 kts | 171° |
| 2026-05-04 21:58 | 52.09506 | -1.08597 | 28363 ft | 462 kts | 170° |
| 2026-05-04 21:58 | 52.06342 | -1.07599 | 28965 ft | 466 kts | 170° |
| 2026-05-04 21:59 | 52.03129 | -1.06559 | 29057 ft | 471 kts | 170° |
| 2026-05-04 21:59 | 51.96807 | -1.04483 | 29042 ft | 458 kts | 170° |
| 2026-05-04 22:00 | 51.90544 | -1.02401 | 29053 ft | 461 kts | 170° |
| 2026-05-04 22:00 | 51.84245 | -1.00318 | 29048 ft | 462 kts | 170° |
| 2026-05-04 22:01 | 51.77978 | -0.98301 | 29058 ft | 461 kts | 170° |
| 2026-05-04 22:01 | 51.71686 | -0.96296 | 29035 ft | 459 kts | 170° |
| 2026-05-04 22:02 | 51.65424 | -0.94297 | 29046 ft | 458 kts | 170° |
| 2026-05-04 22:02 | 51.59538 | -0.90680 | 29050 ft | 463 kts | 145° |
| 2026-05-04 22:02 | 51.57185 | -0.87099 | 29055 ft | 470 kts | 133° |
| 2026-05-04 22:03 | 51.55347 | -0.82706 | 29039 ft | 478 kts | 119° |
| 2026-05-04 22:03 | 51.52858 | -0.72791 | 29050 ft | 481 kts | 114° |
| 2026-05-04 22:04 | 51.50403 | -0.62782 | 29046 ft | 482 kts | 115° |
| 2026-05-04 22:04 | 51.47887 | -0.52897 | 29049 ft | 481 kts | 116° |
| 2026-05-04 22:05 | 51.45318 | -0.43002 | 29044 ft | 480 kts | 116° |
| 2026-05-04 22:05 | 51.42741 | -0.33130 | 29048 ft | 479 kts | 116° |
| 2026-05-04 22:06 | 51.40162 | -0.23279 | 29048 ft | 479 kts | 116° |
| 2026-05-04 22:06 | 51.37583 | -0.13462 | 29048 ft | 478 kts | 116° |
| 2026-05-04 22:07 | 51.34994 | -0.03636 | 29046 ft | 479 kts | 115° |
| 2026-05-04 22:07 | 51.33099 | 0.06631 | 29043 ft | 485 kts | 104° |
| 2026-05-04 22:08 | 51.32360 | 0.17391 | 29049 ft | 489 kts | 97° |
| 2026-05-04 22:08 | 51.31914 | 0.28258 | 29036 ft | 490 kts | 97° |
| 2026-05-04 22:09 | 51.31420 | 0.39072 | 29027 ft | 490 kts | 97° |
| 2026-05-04 22:09 | 51.30886 | 0.49930 | 29019 ft | 490 kts | 97° |
| 2026-05-04 22:10 | 51.30347 | 0.60791 | 29018 ft | 490 kts | 97° |
| 2026-05-04 22:10 | 51.29932 | 0.71670 | 29039 ft | 490 kts | 95° |
| 2026-05-04 22:11 | 51.29563 | 0.82553 | 29042 ft | 490 kts | 96° |
| 2026-05-04 22:11 | 51.29161 | 0.93428 | 29032 ft | 490 kts | 96° |
| 2026-05-04 22:12 | 51.28741 | 1.04254 | 29043 ft | 491 kts | 96° |
| 2026-05-04 22:12 | 51.28304 | 1.15182 | 29024 ft | 493 kts | 96° |
| 2026-05-04 22:13 | 51.27854 | 1.26125 | 29039 ft | 494 kts | 96° |
| 2026-05-04 22:13 | 51.27397 | 1.37075 | 29023 ft | 494 kts | 96° |
| 2026-05-04 22:14 | 51.26930 | 1.48032 | 29032 ft | 493 kts | 96° |
| 2026-05-04 22:14 | 51.26696 | 1.53456 | 28727 ft | 479 kts | 96° |
| 2026-05-04 22:14 | 51.26476 | 1.58610 | 27649 ft | 455 kts | 96° |
| 2026-05-04 22:14 | 51.26255 | 1.63658 | 26982 ft | 451 kts | 96° |
| 2026-05-04 22:15 | 51.26036 | 1.68618 | 26426 ft | 445 kts | 96° |
| 2026-05-04 22:15 | 51.25819 | 1.73461 | 25899 ft | 439 kts | 96° |
| 2026-05-04 22:15 | 51.25601 | 1.78297 | 25377 ft | 434 kts | 96° |
| 2026-05-04 22:15 | 51.25383 | 1.83087 | 24869 ft | 431 kts | 96° |
| 2026-05-04 22:16 | 51.25163 | 1.87876 | 24361 ft | 435 kts | 96° |
| 2026-05-04 22:16 | 51.24939 | 1.92725 | 23848 ft | 443 kts | 96° |
| 2026-05-04 22:16 | 51.24709 | 1.97642 | 23249 ft | 442 kts | 95° |
| 2026-05-04 22:16 | 51.24484 | 2.02495 | 22831 ft | 432 kts | 95° |
| 2026-05-04 22:17 | 51.24269 | 2.07229 | 22598 ft | 425 kts | 95° |
| 2026-05-04 22:17 | 51.24054 | 2.11959 | 22359 ft | 431 kts | 95° |
| 2026-05-04 22:17 | 51.23834 | 2.16758 | 22110 ft | 435 kts | 95° |
| 2026-05-04 22:17 | 51.23611 | 2.21587 | 21830 ft | 434 kts | 95° |
| 2026-05-04 22:18 | 51.23389 | 2.26364 | 21549 ft | 430 kts | 95° |
| 2026-05-04 22:18 | 51.23166 | 2.31097 | 21270 ft | 427 kts | 95° |
| 2026-05-04 22:18 | 51.22896 | 2.35793 | 20999 ft | 421 kts | 100° |
| 2026-05-04 22:18 | 51.22127 | 2.40219 | 20744 ft | 418 kts | 113° |
| 2026-05-04 22:19 | 51.20786 | 2.44313 | 20522 ft | 416 kts | 124° |
| 2026-05-04 22:19 | 51.18995 | 2.47915 | 20268 ft | 415 kts | 133° |
| 2026-05-04 22:19 | 51.17062 | 2.51340 | 20019 ft | 415 kts | 132° |
| 2026-05-04 22:19 | 51.15148 | 2.54790 | 19768 ft | 415 kts | 131° |
| 2026-05-04 22:20 | 51.13253 | 2.58267 | 19517 ft | 415 kts | 131° |
| 2026-05-04 22:20 | 51.11368 | 2.61746 | 19259 ft | 415 kts | 131° |
| 2026-05-04 22:20 | 51.09693 | 2.65409 | 18992 ft | 410 kts | 118° |
| 2026-05-04 22:20 | 51.08828 | 2.69731 | 18757 ft | 406 kts | 100° |
| 2026-05-04 22:21 | 51.08378 | 2.74167 | 18526 ft | 407 kts | 100° |
| 2026-05-04 22:21 | 51.07881 | 2.78608 | 18269 ft | 409 kts | 101° |
| 2026-05-04 22:21 | 51.07356 | 2.83049 | 18005 ft | 410 kts | 101° |
| 2026-05-04 22:21 | 51.06818 | 2.87506 | 17728 ft | 410 kts | 101° |
| 2026-05-04 22:22 | 51.06276 | 2.91956 | 17479 ft | 409 kts | 101° |
| 2026-05-04 22:22 | 51.05735 | 2.96380 | 17229 ft | 407 kts | 101° |
| 2026-05-04 22:22 | 51.05196 | 3.00781 | 16980 ft | 405 kts | 101° |
| 2026-05-04 22:22 | 51.04658 | 3.05163 | 16732 ft | 403 kts | 101° |
| 2026-05-04 22:23 | 51.04123 | 3.09509 | 16488 ft | 400 kts | 101° |
| 2026-05-04 22:23 | 51.03595 | 3.13784 | 16246 ft | 398 kts | 101° |
| 2026-05-04 22:23 | 51.03062 | 3.18090 | 16013 ft | 396 kts | 101° |
| 2026-05-04 22:23 | 51.02530 | 3.22369 | 15762 ft | 394 kts | 101° |
| 2026-05-04 22:24 | 51.02000 | 3.26624 | 15525 ft | 392 kts | 101° |
| 2026-05-04 22:24 | 51.01471 | 3.30854 | 15276 ft | 390 kts | 101° |
| 2026-05-04 22:24 | 51.00942 | 3.35079 | 15042 ft | 389 kts | 101° |
| 2026-05-04 22:24 | 51.00413 | 3.39284 | 14814 ft | 388 kts | 101° |
| 2026-05-04 22:25 | 50.99884 | 3.43474 | 14570 ft | 387 kts | 101° |
| 2026-05-04 22:25 | 50.99355 | 3.47654 | 14340 ft | 386 kts | 101° |
| 2026-05-04 22:25 | 50.98825 | 3.51829 | 14108 ft | 385 kts | 101° |
| 2026-05-04 22:25 | 50.98295 | 3.55994 | 13877 ft | 384 kts | 101° |
| 2026-05-04 22:26 | 50.97765 | 3.60139 | 13609 ft | 383 kts | 101° |
| 2026-05-04 22:26 | 50.97242 | 3.64225 | 13379 ft | 382 kts | 101° |
| 2026-05-04 22:26 | 50.96715 | 3.68335 | 13131 ft | 380 kts | 101° |
| 2026-05-04 22:26 | 50.96187 | 3.72428 | 12890 ft | 378 kts | 101° |
| 2026-05-04 22:27 | 50.95660 | 3.76514 | 12676 ft | 376 kts | 101° |
| 2026-05-04 22:27 | 50.95131 | 3.80586 | 12436 ft | 375 kts | 101° |
| 2026-05-04 22:27 | 50.94606 | 3.84634 | 12210 ft | 374 kts | 101° |
| 2026-05-04 22:27 | 50.94083 | 3.88657 | 11983 ft | 372 kts | 101° |
| 2026-05-04 22:28 | 50.93559 | 3.92674 | 11757 ft | 371 kts | 101° |
| 2026-05-04 22:28 | 50.93033 | 3.96681 | 11532 ft | 370 kts | 101° |
| 2026-05-04 22:28 | 50.92547 | 4.00644 | 11317 ft | 360 kts | 97° |
| 2026-05-04 22:28 | 50.92302 | 4.04513 | 11083 ft | 347 kts | 93° |
| 2026-05-04 22:29 | 50.92179 | 4.08259 | 10877 ft | 334 kts | 92° |
| 2026-05-04 22:29 | 50.92081 | 4.11879 | 10675 ft | 322 kts | 92° |
| 2026-05-04 22:29 | 50.91981 | 4.15318 | 10489 ft | 311 kts | 92° |
| 2026-05-04 22:29 | 50.91869 | 4.18726 | 10301 ft | 300 kts | 92° |
| 2026-05-04 22:30 | 50.91754 | 4.21936 | 10123 ft | 290 kts | 93° |
| 2026-05-04 22:30 | 50.91635 | 4.25082 | 9954 ft | 280 kts | 93° |
| 2026-05-04 22:30 | 50.91515 | 4.28137 | 9779 ft | 276 kts | 93° |
| 2026-05-04 22:30 | 50.91393 | 4.31165 | 9610 ft | 274 kts | 93° |
| 2026-05-04 22:31 | 50.91268 | 4.34179 | 9442 ft | 274 kts | 93° |
| 2026-05-04 22:31 | 50.91143 | 4.37183 | 9269 ft | 273 kts | 93° |
| 2026-05-04 22:31 | 50.91017 | 4.40179 | 9109 ft | 272 kts | 93° |
| 2026-05-04 22:31 | 50.90890 | 4.43164 | 8944 ft | 272 kts | 93° |
| 2026-05-04 22:32 | 50.90762 | 4.46151 | 8784 ft | 271 kts | 93° |
| 2026-05-04 22:32 | 50.90635 | 4.49091 | 8617 ft | 270 kts | 93° |
| 2026-05-04 22:32 | 50.90506 | 4.52065 | 8455 ft | 270 kts | 93° |
| 2026-05-04 22:32 | 50.90376 | 4.55026 | 8277 ft | 269 kts | 93° |
| 2026-05-04 22:33 | 50.90246 | 4.57989 | 8123 ft | 269 kts | 93° |
| 2026-05-04 22:33 | 50.90115 | 4.60945 | 7965 ft | 268 kts | 93° |
| 2026-05-04 22:33 | 50.89984 | 4.63891 | 7809 ft | 268 kts | 92° |
| 2026-05-04 22:33 | 50.89853 | 4.66824 | 7669 ft | 266 kts | 92° |
| 2026-05-04 22:34 | 50.89721 | 4.69753 | 7509 ft | 266 kts | 92° |
| 2026-05-04 22:34 | 50.89589 | 4.72677 | 7372 ft | 265 kts | 92° |
| 2026-05-04 22:34 | 50.89457 | 4.75590 | 7202 ft | 265 kts | 92° |
| 2026-05-04 22:34 | 50.89324 | 4.78501 | 7049 ft | 264 kts | 92° |
| 2026-05-04 22:35 | 50.89191 | 4.81398 | 6894 ft | 264 kts | 92° |
| 2026-05-04 22:35 | 50.89103 | 4.83321 | 6791 ft | 264 kts | 92° |
| 2026-05-04 22:35 | 50.88924 | 4.87157 | 6582 ft | 264 kts | 92° |
| 2026-05-04 22:35 | 50.88788 | 4.90051 | 6419 ft | 262 kts | 92° |
| 2026-05-04 22:36 | 50.88981 | 4.92842 | 6230 ft | 254 kts | 66° |
| 2026-05-04 22:36 | 50.89595 | 4.94437 | 6140 ft | 251 kts | 46° |
| 2026-05-04 22:36 | 50.91021 | 4.96006 | 5994 ft | 253 kts | 20° |
| 2026-05-04 22:36 | 50.92762 | 4.96426 | 5737 ft | 257 kts | 355° |
| 2026-05-04 22:37 | 50.94433 | 4.95562 | 5426 ft | 260 kts | 328° |
| 2026-05-04 22:37 | 50.95658 | 4.93470 | 4958 ft | 258 kts | 305° |
| 2026-05-04 22:37 | 50.96622 | 4.91105 | 4659 ft | 253 kts | 304° |
| 2026-05-04 22:37 | 50.97438 | 4.88670 | 4363 ft | 244 kts | 287° |
| 2026-05-04 22:38 | 50.97457 | 4.86051 | 4117 ft | 238 kts | 259° |
| 2026-05-04 22:38 | 50.97037 | 4.83556 | 3879 ft | 231 kts | 255° |
| 2026-05-04 22:38 | 50.96533 | 4.81165 | 3633 ft | 225 kts | 252° |
| 2026-05-04 22:38 | 50.96012 | 4.78885 | 3428 ft | 220 kts | 251° |
| 2026-05-04 22:39 | 50.95492 | 4.76638 | 3202 ft | 214 kts | 251° |
| 2026-05-04 22:39 | 50.94993 | 4.74474 | 3058 ft | 201 kts | 252° |
| 2026-05-04 22:39 | 50.94523 | 4.72432 | 2866 ft | 196 kts | 252° |
| 2026-05-04 22:39 | 50.94049 | 4.70370 | 2551 ft | 196 kts | 251° |
| 2026-05-04 22:40 | 50.93589 | 4.68372 | 2299 ft | 196 kts | 251° |
| 2026-05-04 22:40 | 50.93126 | 4.66361 | 2065 ft | 192 kts | 252° |
| 2026-05-04 22:40 | 50.92668 | 4.64372 | 1776 ft | 188 kts | 252° |
| 2026-05-04 22:40 | 50.92233 | 4.62484 | 1520 ft | 175 kts | 252° |
| 2026-05-04 22:41 | 50.91834 | 4.60751 | 1302 ft | 162 kts | 252° |
| 2026-05-04 22:41 | 50.91452 | 4.59088 | 1090 ft | 161 kts | 252° |
| 2026-05-04 22:41 | 50.91074 | 4.57447 | 884 ft | 156 kts | 252° |
| 2026-05-04 22:41 | 50.90711 | 4.55877 | 660 ft | 151 kts | 253° |
| 2026-05-04 22:42 | 50.90355 | 4.54348 | 468 ft | 146 kts | 251° |
| 2026-05-04 22:42 | 50.90002 | 4.52827 | 295 ft | 148 kts | 253° |
| 2026-05-04 22:42 | 50.89663 | 4.51330 | 179 ft | 134 kts | 252° |
| 2026-05-04 22:42 | 50.89389 | 4.50151 | 181 ft | 89 kts | 250° |
| 2026-05-04 22:43 | 50.89241 | 4.49491 | 180 ft | 37 kts | 250° |
| 2026-05-04 22:43 | 50.89243 | 4.49301 | 179 ft | 17 kts | 295° |
| 2026-05-04 22:43 | 50.89322 | 4.49141 | 172 ft | 16 kts | 311° |
| 2026-05-04 22:43 | 50.89362 | 4.49105 | 170 ft | 7 kts | 8° |
| 2026-05-04 22:44 | 50.89421 | 4.49130 | 168 ft | 11 kts | 14° |
| 2026-05-04 22:44 | 50.89507 | 4.49165 | 164 ft | 14 kts | 14° |
| 2026-05-04 22:44 | 50.89607 | 4.49232 | 159 ft | 16 kts | 32° |
| 2026-05-04 22:44 | 50.89714 | 4.49289 | 153 ft | 19 kts | 14° |
| 2026-05-04 22:45 | 50.89855 | 4.49348 | 144 ft | 24 kts | 14° |
| 2026-05-04 22:45 | 50.90143 | 4.49465 | 130 ft | 19 kts | 13° |
| 2026-05-04 22:45 | 50.90276 | 4.49520 | 126 ft | 21 kts | 14° |
| 2026-05-04 22:46 | 50.90420 | 4.49579 | 127 ft | 21 kts | 14° |
| 2026-05-04 22:46 | 50.90565 | 4.49637 | 126 ft | 21 kts | 14° |
| 2026-05-04 22:46 | 50.90700 | 4.49693 | 125 ft | 17 kts | 15° |
| 2026-05-04 22:46 | 50.90793 | 4.49729 | 126 ft | 11 kts | 0° |
| 2026-05-04 22:47 | 50.90831 | 4.49665 | 124 ft | 8 kts | 307° |
| 2026-05-04 22:47 | 50.90857 | 4.49581 | 124 ft | 9 kts | 277° |
| 2026-05-04 22:47 | 50.90841 | 4.49481 | 124 ft | 10 kts | 245° |
| 2026-05-04 22:47 | 50.90810 | 4.49371 | 124 ft | 12 kts | 246° |
| 2026-05-04 22:48 | 50.90773 | 4.49244 | 124 ft | 13 kts | 245° |
| 2026-05-04 22:48 | 50.90732 | 4.49102 | 123 ft | 15 kts | 245° |
| 2026-05-04 22:48 | 50.90687 | 4.48943 | 121 ft | 16 kts | 245° |
| 2026-05-04 22:48 | 50.90641 | 4.48784 | 124 ft | 14 kts | 245° |
| 2026-05-04 22:49 | 50.90610 | 4.48678 | 120 ft | 10 kts | 245° |
| 2026-05-04 22:49 | 50.90580 | 4.48574 | 120 ft | 11 kts | 245° |
| 2026-05-04 22:49 | 50.90547 | 4.48462 | 122 ft | 12 kts | 245° |
| 2026-05-04 22:49 | 50.90512 | 4.48341 | 122 ft | 13 kts | 245° |
| 2026-05-04 22:50 | 50.90475 | 4.48210 | 122 ft | 13 kts | 245° |
| 2026-05-04 22:50 | 50.90436 | 4.48077 | 120 ft | 13 kts | 245° |
| 2026-05-04 22:50 | 50.90398 | 4.47943 | 122 ft | 13 kts | 246° |
| 2026-05-04 22:50 | 50.90360 | 4.47809 | 123 ft | 13 kts | 246° |
| 2026-05-04 22:51 | 50.90322 | 4.47675 | 121 ft | 13 kts | 245° |
| 2026-05-04 22:51 | 50.90282 | 4.47542 | 121 ft | 13 kts | 244° |
| 2026-05-04 22:51 | 50.90243 | 4.47408 | 122 ft | 13 kts | 245° |
| 2026-05-04 22:51 | 50.90205 | 4.47275 | 123 ft | 13 kts | 245° |
| 2026-05-04 22:52 | 50.90176 | 4.47155 | 128 ft | 10 kts | 263° |
| 2026-05-04 22:52 | 50.90193 | 4.47050 | 126 ft | 10 kts | 291° |
| 2026-05-04 22:52 | 50.90222 | 4.46951 | 129 ft | 10 kts | 297° |
| 2026-05-04 22:52 | 50.90253 | 4.46854 | 127 ft | 10 kts | 296° |
| 2026-05-04 22:53 | 50.90284 | 4.46756 | 130 ft | 10 kts | 296° |
| 2026-05-04 22:53 | 50.90314 | 4.46658 | 132 ft | 10 kts | 296° |
| 2026-05-04 22:53 | 50.90344 | 4.46562 | 126 ft | 8 kts | 296° |
| 2026-05-04 22:53 | 50.90360 | 4.46477 | 136 ft | 8 kts | 280° |
| 2026-05-04 22:54 | 50.90356 | 4.46388 | 137 ft | 8 kts | 256° |
| 2026-05-04 22:54 | 50.90339 | 4.46315 | 137 ft | 6 kts | 256° |
| 2026-05-04 22:54 | 50.90362 | 4.46274 | 138 ft | 3 kts | 347° |
| 2026-05-04 22:54 | 50.90380 | 4.46268 | 138 ft | 3 kts | 344° |
| 2026-05-04 22:55 | 50.90396 | 4.46256 | 138 ft | 3 kts | 336° |
| 2026-05-04 22:55 | 50.90412 | 4.46245 | 138 ft | 3 kts | 336° |
| 2026-05-04 22:55 | 50.90416 | 4.46242 | 138 ft | 0 kts | 336° |